Time;durP1;ratioP1;P1;durP2;ratioP2;P2;SDS_P1;SDS_P2;PMS_P1;PMS_P2;Temp;Humidity;BMP_temperature;BMP_pressure;BME280_temperature;BME280_humidity;BME280_pressure;Samples;Min_cycle;Max_cycle;Signal;HPM_P1;HPM_P2
2022/05/12 00:00:09;;;;;;;7.07;5.43;;;20.20;90.20;;;;;;5014551;28;20034;-72
2022/05/12 00:02:36;;;;;;;5.88;4.80;;;20.20;90.20;;;;;;5013396;28;20068;-73
2022/05/12 00:05:03;;;;;;;7.93;4.57;;;20.20;90.30;;;;;;5014883;28;20389;-73
2022/05/12 00:07:30;;;;;;;7.03;4.57;;;20.20;90.30;;;;;;5012289;28;20030;-72
2022/05/12 00:09:56;;;;;;;6.28;4.25;;;20.30;90.30;;;;;;5013520;28;20037;-74
2022/05/12 00:12:23;;;;;;;7.35;5.00;;;20.30;90.30;;;;;;5012193;28;20033;-73
2022/05/12 00:14:48;;;;;;;7.80;5.07;;;20.30;90.30;;;;;;5014123;28;20113;-73
2022/05/12 00:17:13;;;;;;;7.65;5.10;;;20.30;90.30;;;;;;5005437;28;20080;-72
2022/05/12 00:19:39;;;;;;;7.75;5.03;;;20.30;90.30;;;;;;5000794;28;20018;-73
2022/05/12 00:22:04;;;;;;;6.38;4.75;;;20.30;90.30;;;;;;5012613;28;20033;-72
2022/05/12 00:24:30;;;;;;;7.43;5.13;;;20.30;90.30;;;;;;5013049;28;20029;-72
2022/05/12 00:26:56;;;;;;;6.80;4.53;;;20.30;90.30;;;;;;5012554;28;20113;-72
2022/05/12 00:29:22;;;;;;;7.05;4.40;;;20.30;90.40;;;;;;5013744;28;20022;-72
2022/05/12 00:31:48;;;;;;;9.63;4.78;;;20.30;90.40;;;;;;5001333;28;20060;-72
2022/05/12 00:34:15;;;;;;;6.18;4.45;;;20.30;90.30;;;;;;5000477;28;20115;-72
2022/05/12 00:36:41;;;;;;;6.43;4.72;;;20.30;90.40;;;;;;5012185;28;20040;-72
2022/05/12 00:39:06;;;;;;;5.28;4.63;;;20.30;90.50;;;;;;5013699;28;20022;-73
2022/05/12 00:41:33;;;;;;;9.25;5.20;;;20.20;90.50;;;;;;5011777;28;20076;-72
2022/05/12 00:44:02;;;;;;;5.90;4.18;;;20.20;90.50;;;;;;5012823;28;20036;-72
2022/05/12 00:46:31;;;;;;;4.85;4.15;;;20.30;90.50;;;;;;5011960;28;20037;-73
2022/05/12 00:49:03;;;;;;;7.68;4.63;;;20.20;90.50;;;;;;5013767;28;20475;-72
2022/05/12 00:51:36;;;;;;;6.32;4.72;;;20.30;90.50;;;;;;5009937;28;20131;-73
2022/05/12 00:54:06;;;;;;;8.00;4.50;;;20.30;90.50;;;;;;5008206;28;20022;-72
2022/05/12 00:56:34;;;;;;;6.97;4.50;;;20.30;90.50;;;;;;5012457;28;20037;-72
2022/05/12 00:59:01;;;;;;;5.75;4.45;;;20.40;90.50;;;;;;4997116;28;20026;-73
2022/05/12 01:01:27;;;;;;;6.13;4.22;;;20.40;90.40;;;;;;5011635;28;20120;-72
2022/05/12 01:03:56;;;;;;;6.57;4.25;;;20.40;90.40;;;;;;5011943;28;20033;-73
2022/05/12 01:06:21;;;;;;;5.93;3.95;;;20.40;90.40;;;;;;5011434;28;20117;-73
2022/05/12 01:08:47;;;;;;;7.60;4.57;;;20.50;90.50;;;;;;5012796;28;20038;-72
2022/05/12 01:11:15;;;;;;;6.55;4.60;;;20.50;90.40;;;;;;5012563;28;20491;-73
2022/05/12 01:13:44;;;;;;;5.57;4.22;;;20.50;90.40;;;;;;5011865;28;20109;-72
2022/05/12 01:16:09;;;;;;;8.00;4.60;;;20.50;90.50;;;;;;5006046;28;20100;-73
2022/05/12 01:18:39;;;;;;;6.13;4.80;;;20.50;90.40;;;;;;5003127;28;20477;-72
2022/05/12 01:21:04;;;;;;;6.25;4.40;;;20.50;90.40;;;;;;5010502;28;20076;-72
2022/05/12 01:23:36;;;;;;;6.78;4.60;;;20.50;90.40;;;;;;5012691;28;20061;-73
2022/05/12 01:26:05;;;;;;;5.72;4.63;;;20.50;90.40;;;;;;5011008;28;20034;-72
2022/05/12 01:28:31;;;;;;;6.38;4.18;;;20.50;90.30;;;;;;5012886;28;20030;-72
2022/05/12 01:30:57;;;;;;;5.35;4.35;;;20.50;90.30;;;;;;5010811;28;20137;-72
2022/05/12 01:33:23;;;;;;;6.70;4.68;;;20.50;90.30;;;;;;5012639;28;20022;-72
2022/05/12 01:35:49;;;;;;;8.18;4.57;;;20.60;90.30;;;;;;5011462;28;20057;-72
2022/05/12 01:38:15;;;;;;;8.60;5.03;;;20.50;90.30;;;;;;5012715;28;20473;-71
2022/05/12 01:40:43;;;;;;;6.90;4.60;;;20.50;90.60;;;;;;5010366;28;20058;-72
2022/05/12 01:43:10;;;;;;;8.48;4.65;;;20.50;91.10;;;;;;5012312;28;20017;-72
2022/05/12 01:45:35;;;;;;;14.55;4.97;;;20.40;91.30;;;;;;5010924;28;20026;-72
2022/05/12 01:48:01;;;;;;;7.85;5.10;;;20.40;91.70;;;;;;5012424;28;20069;-72
2022/05/12 01:50:26;;;;;;;10.68;5.25;;;20.30;91.70;;;;;;5009837;28;20493;-72
2022/05/12 01:52:52;;;;;;;5.80;4.50;;;20.20;91.80;;;;;;5012619;28;20029;-72
2022/05/12 01:55:20;;;;;;;6.28;5.07;;;20.10;92.10;;;;;;5012274;28;20107;-72
2022/05/12 01:57:46;;;;;;;6.55;4.78;;;20.10;92.30;;;;;;5010014;28;20034;-72
2022/05/12 02:00:16;;;;;;;4.82;4.20;;;19.90;92.50;;;;;;5012109;28;20077;-72
2022/05/12 02:02:41;;;;;;;8.50;5.35;;;19.90;92.70;;;;;;5010863;28;20062;-72
2022/05/12 02:05:09;;;;;;;7.60;4.68;;;19.90;92.80;;;;;;5011479;28;20076;-72
2022/05/12 02:07:37;;;;;;;7.30;5.07;;;19.80;92.80;;;;;;5009332;28;20038;-72
2022/05/12 02:10:05;;;;;;;8.18;5.13;;;19.60;92.70;;;;;;5012722;28;20555;-73
2022/05/12 02:12:30;;;;;;;10.20;5.32;;;19.60;92.80;;;;;;5013206;28;20125;-72
2022/05/12 02:14:55;;;;;;;5.68;4.78;;;19.40;92.90;;;;;;5018699;28;20152;-72
2022/05/12 02:17:21;;;;;;;7.53;4.25;;;19.40;92.90;;;;;;5016788;28;20362;-73
2022/05/12 02:19:47;;;;;;;6.68;4.57;;;19.30;92.90;;;;;;5019970;28;20022;-72
2022/05/12 02:22:12;;;;;;;6.00;4.65;;;19.30;93.10;;;;;;5016888;28;20520;-71
2022/05/12 02:24:38;;;;;;;6.10;4.85;;;19.30;93.20;;;;;;5011924;28;20023;-72
2022/05/12 02:27:03;;;;;;;6.85;4.30;;;19.20;93.50;;;;;;5008300;28;20049;-71
2022/05/12 02:29:29;;;;;;;6.15;4.15;;;19.10;93.40;;;;;;5016456;28;20021;-71
2022/05/12 02:31:55;;;;;;;9.88;5.63;;;19.10;93.60;;;;;;5007947;28;20041;-71
2022/05/12 02:34:20;;;;;;;9.60;4.53;;;19.10;93.70;;;;;;5000424;28;20023;-72
2022/05/12 02:37:01;;;;;;;5.72;4.20;;;19.00;93.70;;;;;;5013567;28;20500;-72
2022/05/12 02:39:35;;;;;;;9.45;4.97;;;19.00;93.90;;;;;;5011930;28;20026;-72
2022/05/12 02:42:02;;;;;;;8.48;4.45;;;18.90;94.10;;;;;;5009848;28;20034;-72
2022/05/12 02:44:28;;;;;;;11.15;5.35;;;18.90;94.30;;;;;;5011723;28;20105;-72
2022/05/12 02:46:53;;;;;;;6.72;4.95;;;18.90;94.50;;;;;;5004190;28;20501;-72
2022/05/12 02:49:19;;;;;;;9.52;5.22;;;18.80;94.70;;;;;;4992189;28;20056;-73
2022/05/12 02:51:45;;;;;;;9.20;5.18;;;18.70;94.90;;;;;;4999560;28;20045;-73
2022/05/12 02:54:16;;;;;;;9.07;5.15;;;18.60;94.90;;;;;;5010290;28;20026;-73
2022/05/12 02:56:41;;;;;;;5.75;4.63;;;18.60;95.20;;;;;;5011993;28;20030;-73
2022/05/12 02:59:08;;;;;;;9.15;4.63;;;18.60;95.30;;;;;;5011732;28;20037;-74
2022/05/12 03:01:34;;;;;;;7.93;4.32;;;18.60;95.40;;;;;;5009758;28;20478;-74
2022/05/12 03:04:00;;;;;;;6.10;4.45;;;18.50;95.50;;;;;;5010435;28;20030;-74
2022/05/12 03:06:26;;;;;;;9.13;5.32;;;18.50;95.60;;;;;;5009888;28;20050;-73
2022/05/12 03:08:53;;;;;;;9.00;4.45;;;18.50;95.60;;;;;;5006735;28;20490;-73
2022/05/12 03:11:19;;;;;;;8.10;4.25;;;18.50;95.70;;;;;;5008897;28;20116;-74
2022/05/12 03:13:45;;;;;;;8.55;4.35;;;18.40;95.90;;;;;;5011516;28;20101;-74
2022/05/12 03:16:11;;;;;;;6.47;4.30;;;18.40;95.90;;;;;;5010649;28;20121;-74
2022/05/12 03:18:37;;;;;;;9.52;4.53;;;18.40;96.10;;;;;;4996193;28;20109;-73
2022/05/12 03:21:03;;;;;;;7.43;4.47;;;18.30;96.00;;;;;;5002395;28;20504;-74
2022/05/12 03:23:28;;;;;;;6.43;4.43;;;18.30;96.00;;;;;;5006976;28;20085;-73
2022/05/12 03:25:54;;;;;;;8.02;4.55;;;18.30;96.10;;;;;;5013438;28;20030;-73
2022/05/12 03:28:21;;;;;;;8.65;4.47;;;18.30;96.20;;;;;;5015409;28;20018;-73
2022/05/12 03:30:47;;;;;;;9.55;4.60;;;18.30;96.30;;;;;;5013665;28;20042;-73
2022/05/12 03:33:13;;;;;;;7.28;4.85;;;18.30;96.40;;;;;;5014882;28;20322;-73
2022/05/12 03:35:39;;;;;;;7.03;4.40;;;18.30;96.50;;;;;;5013523;28;20041;-73
2022/05/12 03:38:05;;;;;;;7.03;4.43;;;18.20;96.60;;;;;;5012085;28;20053;-73
2022/05/12 03:40:31;;;;;;;7.60;4.47;;;18.20;96.60;;;;;;5015125;28;20108;-73
2022/05/12 03:42:58;;;;;;;6.38;4.55;;;18.20;96.60;;;;;;5013639;28;20053;-73
2022/05/12 03:45:28;;;;;;;7.90;4.20;;;18.20;96.60;;;;;;5014877;28;20030;-73
2022/05/12 03:47:55;;;;;;;7.43;4.15;;;18.20;96.60;;;;;;5013503;28;20037;-73
2022/05/12 03:50:24;;;;;;;9.07;4.90;;;18.20;96.70;;;;;;5012437;28;20042;-73
2022/05/12 03:52:51;;;;;;;7.65;4.20;;;18.20;96.70;;;;;;5011640;28;20469;-72
2022/05/12 03:55:20;;;;;;;6.57;4.30;;;18.10;96.50;;;;;;5013349;28;20057;-74
2022/05/12 03:57:47;;;;;;;9.85;5.05;;;18.10;96.60;;;;;;5013207;28;20030;-74
2022/05/12 04:00:18;;;;;;;9.20;4.93;;;18.10;96.50;;;;;;5014244;28;20030;-73
2022/05/12 04:02:44;;;;;;;8.13;4.47;;;18.10;96.70;;;;;;5013174;28;20049;-71
2022/05/12 04:05:09;;;;;;;6.63;4.55;;;18.10;96.70;;;;;;5014071;28;20485;-71
2022/05/12 04:07:40;;;;;;;6.13;3.97;;;18.10;96.80;;;;;;5009956;28;20413;-71
2022/05/12 04:10:06;;;;;;;5.97;4.15;;;18.10;96.80;;;;;;5003494;28;20026;-71
2022/05/12 04:12:31;;;;;;;9.07;4.95;;;18.20;97.10;;;;;;5011054;28;20033;-71
2022/05/12 04:14:57;;;;;;;7.95;3.88;;;18.10;96.90;;;;;;5014667;28;20037;-71
2022/05/12 04:17:23;;;;;;;8.27;3.90;;;18.10;96.90;;;;;;5000306;28;20026;-71
2022/05/12 04:19:50;;;;;;;8.07;4.22;;;18.20;96.70;;;;;;5013024;28;20025;-70
2022/05/12 04:22:17;;;;;;;10.82;4.57;;;18.10;96.60;;;;;;5009759;28;20433;-71
2022/05/12 04:24:42;;;;;;;8.15;3.80;;;18.20;96.70;;;;;;5012881;28;20478;-71
2022/05/12 04:27:08;;;;;;;7.57;3.80;;;18.20;96.50;;;;;;5011111;28;20044;-71
2022/05/12 04:29:44;;;;;;;10.13;4.13;;;18.20;96.50;;;;;;5013701;28;20154;-71
2022/05/12 04:32:10;;;;;;;10.43;4.55;;;18.10;96.50;;;;;;5002298;28;20559;-68
2022/05/12 04:37:28;;;;;;;7.40;3.75;;;18.10;96.40;;;;;;5005937;28;20516;-69
2022/05/12 04:39:53;;;;;;;5.40;3.72;;;18.10;96.30;;;;;;5007910;28;20159;-69
2022/05/12 04:42:19;;;;;;;7.30;3.58;;;18.00;96.30;;;;;;4994322;28;20103;-70
2022/05/12 04:44:44;;;;;;;6.57;4.30;;;18.00;96.20;;;;;;5010933;28;20080;-69
2022/05/12 04:47:10;;;;;;;5.85;3.30;;;18.00;96.10;;;;;;5002539;28;20022;-69
2022/05/12 04:49:35;;;;;;;5.90;3.47;;;17.90;96.00;;;;;;5007961;28;20040;-69
2022/05/12 04:52:02;;;;;;;7.70;3.63;;;17.90;96.10;;;;;;5009973;28;20040;-69
2022/05/12 04:54:28;;;;;;;9.32;3.67;;;17.90;95.90;;;;;;5013091;28;20030;-69
2022/05/12 04:56:54;;;;;;;6.85;3.25;;;17.80;96.00;;;;;;5006009;28;20038;-69
2022/05/12 04:59:19;;;;;;;6.93;3.45;;;17.80;96.00;;;;;;5006107;28;20125;-69
2022/05/12 05:01:45;;;;;;;5.15;2.88;;;17.90;95.80;;;;;;5005779;28;20117;-68
2022/05/12 05:04:10;;;;;;;6.20;3.40;;;17.90;95.80;;;;;;4992434;28;20089;-68
2022/05/12 05:06:36;;;;;;;7.68;3.45;;;17.90;95.60;;;;;;5001786;28;20477;-69
2022/05/12 05:09:02;;;;;;;8.07;3.53;;;17.90;95.50;;;;;;4999297;28;20054;-68
2022/05/12 05:11:28;;;;;;;5.45;3.20;;;17.90;95.40;;;;;;4999671;28;20125;-68
2022/05/12 05:13:54;;;;;;;9.35;3.88;;;18.00;95.40;;;;;;5011597;28;20112;-68
2022/05/12 05:16:20;;;;;;;4.95;2.92;;;17.90;95.10;;;;;;5011146;28;20064;-68
2022/05/12 05:18:46;;;;;;;6.55;3.13;;;17.90;95.00;;;;;;5013289;28;20052;-68
2022/05/12 05:21:12;;;;;;;4.00;2.78;;;17.90;94.60;;;;;;5010957;28;20112;-68
2022/05/12 05:23:38;;;;;;;5.05;3.10;;;17.90;94.50;;;;;;5013136;28;20022;-68
2022/05/12 05:26:04;;;;;;;6.03;2.88;;;17.90;94.60;;;;;;5010877;28;20026;-69
2022/05/12 05:28:30;;;;;;;5.13;2.97;;;17.90;94.60;;;;;;5012777;28;20025;-68
2022/05/12 05:30:55;;;;;;;5.50;2.72;;;18.00;94.40;;;;;;5009148;28;20042;-68
2022/05/12 05:33:21;;;;;;;7.22;2.95;;;18.00;94.10;;;;;;5012886;28;20021;-68
2022/05/12 05:35:47;;;;;;;4.35;2.70;;;18.10;93.70;;;;;;5011434;28;20026;-69
2022/05/12 05:38:13;;;;;;;3.35;2.13;;;18.10;93.70;;;;;;5005837;28;20084;-69
2022/05/12 05:40:38;;;;;;;4.55;2.15;;;18.10;93.50;;;;;;5006102;28;20026;-69
2022/05/12 05:43:04;;;;;;;9.35;2.90;;;18.10;93.00;;;;;;5005785;28;20041;-68
2022/05/12 05:45:30;;;;;;;7.20;2.13;;;18.10;92.70;;;;;;5012049;28;20080;-68
2022/05/12 05:47:58;;;;;;;4.70;2.53;;;18.10;91.90;;;;;;5010794;28;20030;-68
2022/05/12 05:53:23;;;;;;;3.17;2.17;;;18.00;91.60;;;;;;5012821;28;20095;-69
2022/05/12 05:53:26;;;;;;;5.90;2.30;;;18.00;91.10;;;;;;4992532;28;20034;-68
2022/05/12 05:55:53;;;;;;;9.02;2.13;;;17.90;91.10;;;;;;5009089;28;20057;-69
2022/05/12 05:58:19;;;;;;;5.30;2.25;;;17.90;90.70;;;;;;4991564;28;20033;-71
2022/05/12 06:00:45;;;;;;;3.15;1.70;;;17.90;90.70;;;;;;5001416;28;20030;-71
2022/05/12 06:03:11;;;;;;;3.83;1.70;;;17.90;90.40;;;;;;4993406;28;20105;-73
2022/05/12 06:05:37;;;;;;;3.50;1.98;;;17.80;89.60;;;;;;5000345;28;20045;-71
2022/05/12 06:08:03;;;;;;;3.75;1.98;;;17.80;90.20;;;;;;5005246;28;20582;-68
2022/05/12 06:10:29;;;;;;;6.03;1.88;;;17.80;89.70;;;;;;5001059;28;20116;-69
2022/05/12 06:12:55;;;;;;;4.28;2.10;;;17.70;89.60;;;;;;5010970;28;20114;-69
2022/05/12 06:15:21;;;;;;;4.15;1.85;;;17.70;89.90;;;;;;5012113;28;20489;-68
2022/05/12 06:17:46;;;;;;;5.85;2.53;;;17.70;89.80;;;;;;5010560;28;20040;-67
2022/05/12 06:20:13;;;;;;;6.15;1.85;;;17.70;89.50;;;;;;5010444;28;20033;-68
2022/05/12 06:22:39;;;;;;;3.38;1.65;;;17.70;88.80;;;;;;5010847;28;20026;-68
2022/05/12 06:25:09;;;;;;;10.15;2.38;;;17.70;89.30;;;;;;5000842;28;20029;-68
2022/05/12 06:27:34;;;;;;;3.83;1.77;;;17.90;89.00;;;;;;5010947;28;20389;-69
2022/05/12 06:30:01;;;;;;;3.72;1.80;;;17.90;88.70;;;;;;5011588;28;20053;-68
2022/05/12 06:32:27;;;;;;;5.22;1.85;;;18.00;88.20;;;;;;5010441;28;20033;-68
2022/05/12 06:34:54;;;;;;;4.38;1.50;;;18.00;87.30;;;;;;5008186;28;20069;-69
2022/05/12 06:37:20;;;;;;;2.88;1.88;;;18.00;87.10;;;;;;5006122;28;20033;-69
2022/05/12 06:39:45;;;;;;;4.15;1.73;;;18.00;87.10;;;;;;5011415;28;20041;-69
2022/05/12 06:42:12;;;;;;;4.63;1.75;;;18.00;87.00;;;;;;5005721;28;20381;-68
2022/05/12 06:44:42;;;;;;;2.72;1.40;;;18.00;86.90;;;;;;5012836;28;20030;-69
2022/05/12 06:47:13;;;;;;;5.18;2.03;;;18.10;86.50;;;;;;5001799;28;20036;-67
2022/05/12 06:49:39;;;;;;;3.58;1.70;;;18.10;86.60;;;;;;5012285;28;20026;-68
2022/05/12 06:52:07;;;;;;;2.85;1.50;;;18.20;86.60;;;;;;5004061;28;20053;-67
2022/05/12 06:54:33;;;;;;;4.47;1.63;;;18.20;85.80;;;;;;4997693;28;20027;-68
2022/05/12 06:56:59;;;;;;;2.88;1.63;;;18.20;85.50;;;;;;5014342;28;20032;-67
2022/05/12 06:59:24;;;;;;;4.10;1.40;;;18.20;85.20;;;;;;5015679;28;20026;-67
2022/05/12 07:01:50;;;;;;;4.05;1.80;;;18.20;85.60;;;;;;5014149;28;20038;-67
2022/05/12 07:04:16;;;;;;;2.90;1.40;;;18.30;85.50;;;;;;5008768;28;20117;-67
2022/05/12 07:06:41;;;;;;;6.75;1.70;;;18.40;85.30;;;;;;5000589;28;20030;-67
2022/05/12 07:09:07;;;;;;;5.97;1.48;;;18.40;84.40;;;;;;5014987;28;20085;-67
2022/05/12 07:11:32;;;;;;;3.45;1.33;;;18.50;84.70;;;;;;5012769;28;20064;-67
2022/05/12 07:13:58;;;;;;;5.07;1.13;;;18.50;83.40;;;;;;5014044;28;20026;-67
2022/05/12 07:16:23;;;;;;;5.03;1.55;;;18.50;83.40;;;;;;5012602;28;20035;-66
2022/05/12 07:18:49;;;;;;;2.95;1.30;;;18.60;83.30;;;;;;5014299;28;20053;-65
2022/05/12 07:26:44;;;;;;;2.58;1.48;;;18.70;83.20;;;;;;5009624;28;20068;-66
2022/05/12 07:29:16;;;;;;;3.05;1.58;;;18.70;82.50;;;;;;5012462;28;20034;-67
2022/05/12 07:31:41;;;;;;;1.95;1.30;;;18.80;82.50;;;;;;5004959;28;20034;-66
2022/05/12 07:34:08;;;;;;;2.63;1.88;;;18.80;82.00;;;;;;5014058;28;20033;-67
2022/05/12 07:36:37;;;;;;;3.63;1.88;;;18.80;82.00;;;;;;5012752;28;20037;-66
2022/05/12 07:39:04;;;;;;;1.98;1.00;;;18.90;81.80;;;;;;5013982;28;20382;-67
2022/05/12 07:41:29;;;;;;;2.97;1.33;;;18.90;81.30;;;;;;5002871;28;20057;-66
2022/05/12 07:43:55;;;;;;;4.30;1.50;;;18.90;81.20;;;;;;5011112;28;20030;-67
2022/05/12 07:46:28;;;;;;;2.58;1.20;;;18.90;80.90;;;;;;5011631;28;20037;-66
2022/05/12 07:48:54;;;;;;;3.28;1.30;;;19.00;80.80;;;;;;5012127;28;20026;-67
2022/05/12 07:51:20;;;;;;;2.67;1.40;;;19.00;79.10;;;;;;5016979;28;20041;-67
2022/05/12 07:53:47;;;;;;;1.88;1.13;;;18.90;79.60;;;;;;5015983;28;20029;-66
2022/05/12 07:56:18;;;;;;;1.92;1.25;;;18.90;79.20;;;;;;5014810;28;20076;-66
2022/05/12 07:58:44;;;;;;;3.85;1.10;;;19.00;78.80;;;;;;5007696;28;20082;-67
2022/05/12 08:01:11;;;;;;;4.07;1.10;;;19.00;77.80;;;;;;5008818;28;20034;-67
2022/05/12 08:03:37;;;;;;;1.98;1.30;;;18.90;78.20;;;;;;5004593;28;20032;-67
2022/05/12 08:06:03;;;;;;;4.30;1.40;;;18.90;78.20;;;;;;5012416;28;20472;-67
2022/05/12 08:08:29;;;;;;;2.85;1.38;;;18.80;78.10;;;;;;5012272;28;20382;-67
2022/05/12 08:10:54;;;;;;;4.88;1.30;;;18.70;78.00;;;;;;5011896;28;20053;-68
2022/05/12 08:13:21;;;;;;;2.85;1.20;;;18.60;78.40;;;;;;5009630;28;20026;-67
2022/05/12 08:15:48;;;;;;;3.20;1.52;;;18.60;78.60;;;;;;5008875;28;20036;-67
2022/05/12 08:18:17;;;;;;;2.55;1.20;;;18.60;78.40;;;;;;5012451;28;20118;-68
2022/05/12 08:20:44;;;;;;;2.15;1.00;;;18.50;78.60;;;;;;5005517;28;20030;-68
2022/05/12 08:23:10;;;;;;;2.63;1.20;;;18.60;78.50;;;;;;5010213;28;20038;-67
2022/05/12 08:25:36;;;;;;;3.60;1.50;;;18.60;78.50;;;;;;5013533;28;20444;-65
2022/05/12 08:28:02;;;;;;;1.80;1.17;;;18.60;78.60;;;;;;4995789;28;20034;-66
2022/05/12 08:30:30;;;;;;;4.00;1.30;;;18.70;78.50;;;;;;5006793;28;20389;-66
2022/05/12 08:32:56;;;;;;;2.72;1.30;;;18.70;77.20;;;;;;5012773;28;20034;-67
2022/05/12 08:35:21;;;;;;;2.78;1.25;;;18.80;77.10;;;;;;5022540;28;20026;-67
2022/05/12 08:37:47;;;;;;;1.45;1.25;;;18.80;76.10;;;;;;5015050;28;20573;-68
2022/05/12 08:40:19;;;;;;;2.42;1.55;;;18.80;75.80;;;;;;5019044;28;20377;-67
2022/05/12 08:42:46;;;;;;;4.25;1.58;;;18.90;76.00;;;;;;5013684;28;20095;-68
2022/05/12 08:45:17;;;;;;;3.92;0.93;;;19.00;75.30;;;;;;5009446;28;20033;-66
2022/05/12 08:47:45;;;;;;;1.90;1.00;;;19.00;74.90;;;;;;5009812;28;20034;-67
2022/05/12 08:50:19;;;;;;;2.95;1.50;;;19.10;74.80;;;;;;5008321;28;20060;-68
2022/05/12 08:53:01;;;;;;;3.30;1.42;;;19.10;74.90;;;;;;4996602;28;20070;-68
2022/05/12 08:55:34;;;;;;;1.83;1.20;;;19.10;74.70;;;;;;5011593;28;20022;-68
2022/05/12 08:58:26;;;;;;;4.25;1.83;;;19.20;74.40;;;;;;5010141;28;20041;-67
2022/05/12 09:01:04;;;;;;;1.60;1.05;;;19.20;73.90;;;;;;5002336;28;20037;-66
2022/05/12 09:04:06;;;;;;;2.42;1.13;;;19.20;73.40;;;;;;5007753;28;20029;-67
2022/05/12 09:06:39;;;;;;;2.05;1.33;;;19.20;73.20;;;;;;5011485;28;20084;-66
2022/05/12 09:09:22;;;;;;;2.30;1.50;;;19.10;73.20;;;;;;5009658;28;20038;-66
2022/05/12 09:11:52;;;;;;;2.08;1.25;;;19.10;73.50;;;;;;5011086;28;20038;-67
2022/05/12 09:14:36;;;;;;;3.42;1.52;;;19.20;72.60;;;;;;5014846;28;20140;-66
2022/05/12 09:17:02;;;;;;;5.00;1.50;;;19.20;73.40;;;;;;5006262;28;20642;-66
2022/05/12 09:19:28;;;;;;;4.45;1.40;;;19.20;72.50;;;;;;5006457;28;20061;-66
2022/05/12 09:21:55;;;;;;;2.00;1.55;;;19.10;72.50;;;;;;4993717;28;20030;-66
2022/05/12 09:24:20;;;;;;;2.13;1.30;;;19.20;72.10;;;;;;5001268;28;20105;-67
2022/05/12 09:26:49;;;;;;;2.45;1.13;;;19.20;72.10;;;;;;5011218;28;20613;-67
2022/05/12 09:29:26;;;;;;;3.00;1.30;;;19.30;72.30;;;;;;5008813;28;20022;-67
2022/05/12 09:32:02;;;;;;;1.85;1.30;;;19.30;69.80;;;;;;5004306;28;20501;-67
2022/05/12 09:34:34;;;;;;;1.35;1.13;;;19.20;70.00;;;;;;4992982;28;20464;-67
2022/05/12 09:37:12;;;;;;;4.00;1.60;;;19.30;70.80;;;;;;5013710;28;20025;-67
2022/05/12 09:39:42;;;;;;;4.22;1.55;;;19.40;71.30;;;;;;4994280;28;20425;-67
2022/05/12 09:42:15;;;;;;;2.03;1.23;;;19.40;73.30;;;;;;5009555;28;20034;-69
2022/05/12 09:44:53;;;;;;;2.45;1.15;;;19.50;71.40;;;;;;5010330;28;20081;-65
2022/05/12 09:47:18;;;;;;;2.67;1.38;;;19.60;70.20;;;;;;5007501;28;20116;-67
2022/05/12 09:49:46;;;;;;;1.52;1.27;;;19.60;69.50;;;;;;5015988;28;20163;-66
2022/05/12 09:52:28;;;;;;;12.25;1.70;;;19.80;69.30;;;;;;5009166;28;20037;-65
2022/05/12 09:55:14;;;;;;;4.43;1.20;;;19.90;68.90;;;;;;5012991;28;20421;-67
2022/05/12 09:57:47;;;;;;;1.77;1.20;;;20.00;68.90;;;;;;5011358;28;20080;-66
2022/05/12 10:00:27;;;;;;;4.15;1.58;;;20.10;68.90;;;;;;5012370;28;20512;-68
2022/05/12 10:08:28;;;;;;;5.68;1.98;;;20.30;68.20;;;;;;5001335;28;20042;-68
2022/05/12 10:10:59;;;;;;;3.38;1.40;;;20.30;68.50;;;;;;5024053;28;20547;-68
2022/05/12 10:13:54;;;;;;;2.65;1.33;;;20.30;66.00;;;;;;5017467;28;20025;-67
2022/05/12 10:16:25;;;;;;;2.50;1.58;;;20.30;64.40;;;;;;5026810;28;20520;-68
2022/05/12 10:18:55;;;;;;;4.53;2.00;;;20.30;65.00;;;;;;5011577;28;20034;-63
2022/05/12 10:21:39;;;;;;;5.55;1.75;;;20.30;66.30;;;;;;5022265;28;20481;-63
2022/05/12 10:24:23;;;;;;;2.33;1.20;;;20.40;67.40;;;;;;5021467;28;20037;-63
2022/05/12 10:26:58;;;;;;;3.60;1.48;;;20.50;66.10;;;;;;5005379;28;20540;-63
2022/05/12 10:30:14;;;;;;;3.50;1.52;;;20.50;66.20;;;;;;5009849;28;20059;-62
2022/05/12 10:33:08;;;;;;;2.30;1.20;;;20.60;66.00;;;;;;5009624;28;20575;-63
2022/05/12 10:35:59;;;;;;;5.30;1.48;;;20.70;65.70;;;;;;4992407;28;20026;-63
2022/05/12 10:38:44;;;;;;;2.00;1.02;;;20.70;65.30;;;;;;5008211;28;20030;-62
2022/05/12 10:41:16;;;;;;;;;;;20.80;63.70;;;;;;5001179;28;20046;-67
2022/05/12 10:44:08;;;;;;;3.28;1.45;;;20.80;63.00;;;;;;5009687;28;19913;-67
2022/05/12 10:46:58;;;;;;;2.85;1.13;;;20.80;63.80;;;;;;5020340;28;20096;-67
2022/05/12 10:49:43;;;;;;;2.08;1.10;;;20.90;63.70;;;;;;5011894;28;20033;-67
2022/05/12 10:52:38;;;;;;;2.92;1.30;;;20.90;62.90;;;;;;5011479;28;20497;-66
2022/05/12 10:55:18;;;;;;;3.85;1.30;;;20.90;63.00;;;;;;5011001;28;20058;-67
2022/05/12 10:58:19;;;;;;;2.58;1.33;;;20.90;62.90;;;;;;5011750;28;20069;-67
2022/05/12 11:01:16;;;;;;;5.32;2.10;;;20.80;62.70;;;;;;5011424;28;20030;-66
2022/05/12 11:03:57;;;;;;;4.45;2.05;;;20.80;63.60;;;;;;5003664;28;20045;-67
2022/05/12 11:06:34;;;;;;;5.15;2.13;;;20.80;63.30;;;;;;5004331;28;20042;-66
2022/05/12 11:09:15;;;;;;;3.35;1.80;;;20.90;62.00;;;;;;5012529;28;20513;-67
2022/05/12 11:11:49;;;;;;;3.20;1.20;;;20.90;62.60;;;;;;5009578;28;20033;-67
2022/05/12 11:14:39;;;;;;;4.35;1.50;;;20.90;62.80;;;;;;5011665;28;20108;-67
2022/05/12 11:17:32;;;;;;;2.63;1.30;;;21.00;63.10;;;;;;5017270;28;20037;-67
2022/05/12 11:20:25;;;;;;;2.08;1.33;;;20.90;61.60;;;;;;5007892;28;20499;-67
2022/05/12 11:23:08;;;;;;;3.53;1.58;;;20.90;62.10;;;;;;5007242;28;20112;-68
2022/05/12 11:25:45;;;;;;;2.60;1.30;;;20.90;62.00;;;;;;4991840;28;20486;-67
2022/05/12 11:31:39;;;;;;;2.85;1.30;;;21.10;61.90;;;;;;5011081;28;20045;-67
2022/05/12 11:34:09;;;;;;;2.88;1.30;;;21.20;61.90;;;;;;5014188;28;20037;-68
2022/05/12 11:36:44;;;;;;;1.83;0.93;;;21.20;61.30;;;;;;5011900;28;20135;-68
2022/05/12 11:39:29;;;;;;;2.33;1.17;;;21.20;61.30;;;;;;5002172;28;20036;-68
2022/05/12 11:42:10;;;;;;;2.25;1.20;;;21.30;61.40;;;;;;5009397;28;20060;-67
2022/05/12 11:44:46;;;;;;;3.38;1.40;;;21.30;60.90;;;;;;5009439;28;20026;-68
2022/05/12 11:47:49;;;;;;;3.08;1.00;;;21.30;61.10;;;;;;5002408;28;20172;-67
2022/05/12 11:50:42;;;;;;;4.00;1.63;;;21.30;60.60;;;;;;5009419;28;20037;-67
2022/05/12 11:53:30;;;;;;;2.30;1.20;;;21.30;60.60;;;;;;5013004;28;20089;-68
2022/05/12 11:56:11;;;;;;;3.22;1.33;;;21.40;60.60;;;;;;5010952;28;20030;-67
2022/05/12 11:58:47;;;;;;;1.55;1.00;;;21.30;60.50;;;;;;5014041;28;20034;-67
2022/05/12 12:01:34;;;;;;;2.05;1.10;;;21.40;60.10;;;;;;5012708;28;20065;-67
2022/05/12 12:04:01;;;;;;;4.32;1.20;;;21.40;60.20;;;;;;4996259;28;20039;-67
2022/05/12 12:06:46;;;;;;;3.00;1.33;;;21.40;60.70;;;;;;5007837;28;20026;-67
2022/05/12 12:09:37;;;;;;;2.90;1.10;;;21.50;59.20;;;;;;5006426;28;20049;-67
2022/05/12 12:12:06;;;;;;;6.30;1.40;;;21.50;59.50;;;;;;5004419;28;20070;-67
2022/05/12 12:14:47;;;;;;;3.40;1.25;;;21.50;61.00;;;;;;5006332;28;20363;-67
2022/05/12 12:17:31;;;;;;;2.10;1.58;;;21.60;59.60;;;;;;5005083;28;20037;-66
2022/05/12 12:20:02;;;;;;;4.45;1.50;;;21.80;59.80;;;;;;5021547;28;20029;-67
2022/05/12 12:22:37;;;;;;;2.45;1.42;;;21.90;60.30;;;;;;5012664;28;20037;-66
2022/05/12 12:25:08;;;;;;;4.05;2.03;;;21.90;59.60;;;;;;5004060;28;20044;-67
2022/05/12 12:28:22;;;;;;;1.92;1.02;;;21.90;58.70;;;;;;5012673;28;20042;-66
2022/05/12 12:30:48;;;;;;;3.88;1.45;;;21.90;59.00;;;;;;5011746;28;20570;-66
2022/05/12 12:33:27;;;;;;;3.78;1.70;;;21.90;57.80;;;;;;5012008;28;20040;-68
2022/05/12 12:36:27;;;;;;;3.45;1.88;;;21.80;58.10;;;;;;5011293;28;20393;-68
2022/05/12 12:38:53;;;;;;;4.25;1.90;;;21.80;58.70;;;;;;5015551;28;20065;-68
2022/05/12 12:41:29;;;;;;;4.53;1.75;;;21.90;59.00;;;;;;5010539;28;20053;-67
2022/05/12 12:44:03;;;;;;;1.70;0.95;;;22.00;58.90;;;;;;5009608;28;20030;-68
2022/05/12 12:47:11;;;;;;;2.53;1.30;;;22.10;58.10;;;;;;5010418;28;20026;-65
2022/05/12 12:49:49;;;;;;;3.72;2.00;;;22.20;57.60;;;;;;5011680;28;20080;-67
2022/05/12 12:52:16;;;;;;;3.08;1.80;;;22.30;56.40;;;;;;5009800;28;20053;-66
2022/05/12 12:57:29;;;;;;;4.00;1.65;;;22.30;56.50;;;;;;5013126;28;20068;-66
2022/05/12 13:00:09;;;;;;;2.67;1.50;;;22.30;56.30;;;;;;5023492;28;20033;-67
2022/05/12 13:02:42;;;;;;;2.22;1.30;;;22.30;58.00;;;;;;5008820;28;20547;-67
2022/05/12 13:05:14;;;;;;;1.30;1.10;;;22.40;56.40;;;;;;5008767;28;20041;-67
2022/05/12 13:07:41;;;;;;;3.00;1.50;;;22.40;56.40;;;;;;5011644;28;20065;-68
2022/05/12 13:10:16;;;;;;;2.88;1.50;;;22.40;56.30;;;;;;5012662;28;20025;-68
2022/05/12 13:12:52;;;;;;;3.83;1.83;;;22.50;56.30;;;;;;5011379;28;20120;-68
2022/05/12 13:15:20;;;;;;;2.13;1.52;;;22.60;56.70;;;;;;5012071;28;20437;-68
2022/05/12 13:17:51;;;;;;;3.70;1.73;;;22.60;56.30;;;;;;5008391;28;20026;-68
2022/05/12 13:20:21;;;;;;;2.58;1.80;;;22.70;55.10;;;;;;5012379;28;20034;-68
2022/05/12 13:22:54;;;;;;;2.53;1.63;;;22.70;54.80;;;;;;5010987;28;20088;-68
2022/05/12 13:25:31;;;;;;;2.42;1.50;;;22.80;54.60;;;;;;5012164;28;20030;-67